
<gpx xmlns="http://www.topografix.com/GPX/1/1" xmlns:gpxx="http://www.garmin.com/xmlschemas/GpxExtensions/v3" xmlns:xsi="http://www.w3.org/2001/XMLSchema-instance" version="1.1" creator="Adze - https://getadze.com/" xsi:schemaLocation="http://www.topografix.com/GPX/1/1 http://www.topografix.com/GPX/1/1/gpx.xsd http://www.garmin.com/xmlschemas/GpxExtensions/v3 http://www.garmin.com/xmlschemas/GpxExtensionsv3.xsd">
    <metadata>
        <name>Untitled Document</name>
        <link href="http://www.garmin.com"></link>
        <time>2018-03-08T04:40:53.635Z</time>
    </metadata>
    <trk>
        <name>December 2009 - Sunday</name>
        <extensions>
            <gpxx:TrackExtension xmlns:gpxx="http://www.garmin.com/xmlschemas/GpxExtensions/v3">
                <gpxx:DisplayColor>Green</gpxx:DisplayColor>
            </gpxx:TrackExtension>
        </extensions>
        <trkseg>
            <trkpt lon="101.117247" lat="15.262488">
                <ele>98.191895</ele>
                <time>2009-12-20T02:30:43Z</time>
            </trkpt>
            <trkpt lon="101.117239" lat="15.262487">
                <ele>98.191895</ele>
                <time>2009-12-20T02:30:44Z</time>
            </trkpt>
            <trkpt lon="101.117214" lat="15.262474">
                <ele>99.153076</ele>
                <time>2009-12-20T02:30:46Z</time>
            </trkpt>
            <trkpt lon="101.116918" lat="15.262482">
                <ele>101.075684</ele>
                <time>2009-12-20T02:30:58Z</time>
            </trkpt>
            <trkpt lon="101.116631" lat="15.262573">
                <ele>102.037109</ele>
                <time>2009-12-20T02:31:08Z</time>
            </trkpt>
            <trkpt lon="101.116687" lat="15.263130">
                <ele>101.556397</ele>
                <time>2009-12-20T02:31:23Z</time>
            </trkpt>
            <trkpt lon="101.116572" lat="15.263600">
                <ele>102.517700</ele>
                <time>2009-12-20T02:31:36Z</time>
            </trkpt>
            <trkpt lon="101.116374" lat="15.264080">
                <ele>104.440430</ele>
                <time>2009-12-20T02:31:52Z</time>
            </trkpt>
            <trkpt lon="101.116095" lat="15.264629">
                <ele>106.363037</ele>
                <time>2009-12-20T02:32:11Z</time>
            </trkpt>
            <trkpt lon="101.115858" lat="15.265116">
                <ele>108.285645</ele>
                <time>2009-12-20T02:32:30Z</time>
            </trkpt>
            <trkpt lon="101.115663" lat="15.265514">
                <ele>111.169556</ele>
                <time>2009-12-20T02:32:47Z</time>
            </trkpt>
            <trkpt lon="101.115470" lat="15.265944">
                <ele>114.534180</ele>
                <time>2009-12-20T02:33:05Z</time>
            </trkpt>
            <trkpt lon="101.115234" lat="15.266450">
                <ele>117.418213</ele>
                <time>2009-12-20T02:33:27Z</time>
            </trkpt>
            <trkpt lon="101.115022" lat="15.266921">
                <ele>119.340820</ele>
                <time>2009-12-20T02:33:45Z</time>
            </trkpt>
            <trkpt lon="101.114823" lat="15.267360">
                <ele>121.263550</ele>
                <time>2009-12-20T02:34:01Z</time>
            </trkpt>
            <trkpt lon="101.114546" lat="15.267910">
                <ele>127.031372</ele>
                <time>2009-12-20T02:34:21Z</time>
            </trkpt>
            <trkpt lon="101.114343" lat="15.268360">
                <ele>127.511963</ele>
                <time>2009-12-20T02:34:36Z</time>
            </trkpt>
            <trkpt lon="101.114030" lat="15.268783">
                <ele>128.954102</ele>
                <time>2009-12-20T02:34:53Z</time>
            </trkpt>
            <trkpt lon="101.113930" lat="15.268880">
                <ele>128.954102</ele>
                <time>2009-12-20T02:34:57Z</time>
            </trkpt>
            <trkpt lon="101.113677" lat="15.268977">
                <ele>127.511963</ele>
                <time>2009-12-20T02:35:02Z</time>
            </trkpt>
            <trkpt lon="101.113072" lat="15.268983">
                <ele>122.224731</ele>
                <time>2009-12-20T02:35:11Z</time>
            </trkpt>
            <trkpt lon="101.112074" lat="15.268846">
                <ele>114.053589</ele>
                <time>2009-12-20T02:35:22Z</time>
            </trkpt>
            <trkpt lon="101.111998" lat="15.268842">
                <ele>113.572998</ele>
                <time>2009-12-20T02:35:23Z</time>
            </trkpt>
            <trkpt lon="101.111092" lat="15.268858">
                <ele>113.092285</ele>
                <time>2009-12-20T02:35:37Z</time>
            </trkpt>
            <trkpt lon="101.110249" lat="15.268724">
                <ele>105.882446</ele>
                <time>2009-12-20T02:35:50Z</time>
            </trkpt>
            <trkpt lon="101.109309" lat="15.268612">
                <ele>101.556397</ele>
                <time>2009-12-20T02:36:02Z</time>
            </trkpt>
            <trkpt lon="101.109042" lat="15.268472">
                <ele>102.037109</ele>
                <time>2009-12-20T02:36:07Z</time>
            </trkpt>
            <trkpt lon="101.108550" lat="15.268365">
                <ele>99.633789</ele>
                <time>2009-12-20T02:36:15Z</time>
            </trkpt>
            <trkpt lon="101.108307" lat="15.268391">
                <ele>98.191895</ele>
                <time>2009-12-20T02:36:19Z</time>
            </trkpt>
            <trkpt lon="101.108135" lat="15.268440">
                <ele>98.191895</ele>
                <time>2009-12-20T02:36:22Z</time>
            </trkpt>
            <trkpt lon="101.107406" lat="15.268422">
                <ele>91.462524</ele>
                <time>2009-12-20T02:36:32Z</time>
            </trkpt>
            <trkpt lon="101.106173" lat="15.268396">
                <ele>87.617188</ele>
                <time>2009-12-20T02:36:46Z</time>
            </trkpt>
            <trkpt lon="101.105345" lat="15.268364">
                <ele>89.059326</ele>
                <time>2009-12-20T02:36:58Z</time>
            </trkpt>
            <trkpt lon="101.105049" lat="15.268346">
                <ele>90.501343</ele>
                <time>2009-12-20T02:37:03Z</time>
            </trkpt>
            <trkpt lon="101.104263" lat="15.268255">
                <ele>87.617188</ele>
                <time>2009-12-20T02:37:14Z</time>
            </trkpt>
            <trkpt lon="101.103168" lat="15.268138">
                <ele>83.291382</ele>
                <time>2009-12-20T02:37:28Z</time>
            </trkpt>
            <trkpt lon="101.101785" lat="15.267997">
                <ele>80.407471</ele>
                <time>2009-12-20T02:37:45Z</time>
            </trkpt>
            <trkpt lon="101.101549" lat="15.267979">
                <ele>79.926636</ele>
                <time>2009-12-20T02:37:48Z</time>
            </trkpt>
            <trkpt lon="101.100715" lat="15.267854">
                <ele>81.849365</ele>
                <time>2009-12-20T02:38:01Z</time>
            </trkpt>
            <trkpt lon="101.099715" lat="15.267713">
                <ele>81.849365</ele>
                <time>2009-12-20T02:38:18Z</time>
            </trkpt>
            <trkpt lon="101.098338" lat="15.267608">
                <ele>75.120239</ele>
                <time>2009-12-20T02:38:36Z</time>
            </trkpt>
            <trkpt lon="101.097223" lat="15.267555">
                <ele>70.794190</ele>
                <time>2009-12-20T02:38:48Z</time>
            </trkpt>
            <trkpt lon="101.095584" lat="15.267409">
                <ele>69.832886</ele>
                <time>2009-12-20T02:39:07Z</time>
            </trkpt>
            <trkpt lon="101.095115" lat="15.267279">
                <ele>69.832886</ele>
                <time>2009-12-20T02:39:13Z</time>
            </trkpt>
            <trkpt lon="101.094954" lat="15.267262">
                <ele>69.832886</ele>
                <time>2009-12-20T02:39:15Z</time>
            </trkpt>
            <trkpt lon="101.093714" lat="15.267171">
                <ele>69.352295</ele>
                <time>2009-12-20T02:39:30Z</time>
            </trkpt>
            <trkpt lon="101.092510" lat="15.267047">
                <ele>67.429688</ele>
                <time>2009-12-20T02:39:45Z</time>
            </trkpt>
            <trkpt lon="101.091054" lat="15.266918">
                <ele>67.910278</ele>
                <time>2009-12-20T02:40:05Z</time>
            </trkpt>
            <trkpt lon="101.089883" lat="15.266819">
                <ele>67.429688</ele>
                <time>2009-12-20T02:40:21Z</time>
            </trkpt>
            <trkpt lon="101.088599" lat="15.266733">
                <ele>68.871582</ele>
                <time>2009-12-20T02:40:39Z</time>
            </trkpt>
            <trkpt lon="101.087683" lat="15.266640">
                <ele>68.871582</ele>
                <time>2009-12-20T02:40:56Z</time>
            </trkpt>
            <trkpt lon="101.086518" lat="15.266498">
                <ele>64.545654</ele>
                <time>2009-12-20T02:41:13Z</time>
            </trkpt>
            <trkpt lon="101.086323" lat="15.266490">
                <ele>63.584351</ele>
                <time>2009-12-20T02:41:18Z</time>
            </trkpt>
            <trkpt lon="101.085977" lat="15.266643">
                <ele>65.026367</ele>
                <time>2009-12-20T02:41:28Z</time>
            </trkpt>
            <trkpt lon="101.085453" lat="15.266908">
                <ele>68.871582</ele>
                <time>2009-12-20T02:41:43Z</time>
            </trkpt>
            <trkpt lon="101.084910" lat="15.266933">
                <ele>66.948975</ele>
                <time>2009-12-20T02:41:55Z</time>
            </trkpt>
            <trkpt lon="101.084422" lat="15.266959">
                <ele>70.313477</ele>
                <time>2009-12-20T02:42:09Z</time>
            </trkpt>
            <trkpt lon="101.083879" lat="15.266931">
                <ele>71.755493</ele>
                <time>2009-12-20T02:42:25Z</time>
            </trkpt>
            <trkpt lon="101.083467" lat="15.266760">
                <ele>73.678223</ele>
                <time>2009-12-20T02:42:38Z</time>
            </trkpt>
            <trkpt lon="101.083369" lat="15.266483">
                <ele>74.158813</ele>
                <time>2009-12-20T02:42:45Z</time>
            </trkpt>
            <trkpt lon="101.083236" lat="15.266334">
                <ele>74.158813</ele>
                <time>2009-12-20T02:42:49Z</time>
            </trkpt>
            <trkpt lon="101.082999" lat="15.266165">
                <ele>74.639526</ele>
                <time>2009-12-20T02:42:55Z</time>
            </trkpt>
            <trkpt lon="101.082928" lat="15.266102">
                <ele>74.158813</ele>
                <time>2009-12-20T02:42:57Z</time>
            </trkpt>
            <trkpt lon="101.082833" lat="15.265878">
                <ele>74.158813</ele>
                <time>2009-12-20T02:43:02Z</time>
            </trkpt>
            <trkpt lon="101.082785" lat="15.265718">
                <ele>73.678223</ele>
                <time>2009-12-20T02:43:05Z</time>
            </trkpt>
            <trkpt lon="101.082318" lat="15.264736">
                <ele>70.794190</ele>
                <time>2009-12-20T02:43:21Z</time>
            </trkpt>
            <trkpt lon="101.082133" lat="15.264297">
                <ele>70.313477</ele>
                <time>2009-12-20T02:43:28Z</time>
            </trkpt>
            <trkpt lon="101.082072" lat="15.264061">
                <ele>69.832886</ele>
                <time>2009-12-20T02:43:32Z</time>
            </trkpt>
            <trkpt lon="101.082072" lat="15.263576">
                <ele>68.390869</ele>
                <time>2009-12-20T02:43:39Z</time>
            </trkpt>
            <trkpt lon="101.082020" lat="15.262881">
                <ele>66.948975</ele>
                <time>2009-12-20T02:43:50Z</time>
            </trkpt>
            <trkpt lon="101.081948" lat="15.262524">
                <ele>67.910278</ele>
                <time>2009-12-20T02:43:56Z</time>
            </trkpt>
            <trkpt lon="101.082072" lat="15.261739">
                <ele>67.429688</ele>
                <time>2009-12-20T02:44:08Z</time>
            </trkpt>
            <trkpt lon="101.082072" lat="15.261610">
                <ele>67.429688</ele>
                <time>2009-12-20T02:44:10Z</time>
            </trkpt>
            <trkpt lon="101.081822" lat="15.260983">
                <ele>65.987671</ele>
                <time>2009-12-20T02:44:21Z</time>
            </trkpt>
            <trkpt lon="101.081812" lat="15.260925">
                <ele>65.987671</ele>
                <time>2009-12-20T02:44:22Z</time>
            </trkpt>
            <trkpt lon="101.081790" lat="15.260634">
                <ele>66.948975</ele>
                <time>2009-12-20T02:44:27Z</time>
            </trkpt>
            <trkpt lon="101.081657" lat="15.259581">
                <ele>65.987671</ele>
                <time>2009-12-20T02:44:46Z</time>
            </trkpt>
            <trkpt lon="101.081643" lat="15.259262">
                <ele>66.468262</ele>
                <time>2009-12-20T02:44:52Z</time>
            </trkpt>
            <trkpt lon="101.081643" lat="15.259163">
                <ele>66.948975</ele>
                <time>2009-12-20T02:44:54Z</time>
            </trkpt>
            <trkpt lon="101.081643" lat="15.259071">
                <ele>66.948975</ele>
                <time>2009-12-20T02:44:56Z</time>
            </trkpt>
            <trkpt lon="101.081563" lat="15.258904">
                <ele>67.429688</ele>
                <time>2009-12-20T02:45:01Z</time>
            </trkpt>
            <trkpt lon="101.081057" lat="15.258506">
                <ele>69.352295</ele>
                <time>2009-12-20T02:45:17Z</time>
            </trkpt>
            <trkpt lon="101.080922" lat="15.258431">
                <ele>69.832886</ele>
                <time>2009-12-20T02:45:21Z</time>
            </trkpt>
            <trkpt lon="101.081112" lat="15.258209">
                <ele>68.390869</ele>
                <time>2009-12-20T02:45:28Z</time>
            </trkpt>
            <trkpt lon="101.081386" lat="15.257849">
                <ele>66.468262</ele>
                <time>2009-12-20T02:45:36Z</time>
            </trkpt>
            <trkpt lon="101.081487" lat="15.257551">
                <ele>66.468262</ele>
                <time>2009-12-20T02:45:41Z</time>
            </trkpt>
            <trkpt lon="101.081555" lat="15.257299">
                <ele>66.468262</ele>
                <time>2009-12-20T02:45:45Z</time>
            </trkpt>
            <trkpt lon="101.081232" lat="15.256329">
                <ele>66.948975</ele>
                <time>2009-12-20T02:46:02Z</time>
            </trkpt>
            <trkpt lon="101.080770" lat="15.255360">
                <ele>67.429688</ele>
                <time>2009-12-20T02:46:20Z</time>
            </trkpt>
            <trkpt lon="101.080728" lat="15.255318">
                <ele>67.429688</ele>
                <time>2009-12-20T02:46:21Z</time>
            </trkpt>
            <trkpt lon="101.080519" lat="15.255186">
                <ele>66.948975</ele>
                <time>2009-12-20T02:46:25Z</time>
            </trkpt>
            <trkpt lon="101.080524" lat="15.254840">
                <ele>65.507080</ele>
                <time>2009-12-20T02:46:31Z</time>
            </trkpt>
            <trkpt lon="101.080807" lat="15.254029">
                <ele>63.584351</ele>
                <time>2009-12-20T02:46:44Z</time>
            </trkpt>
            <trkpt lon="101.081026" lat="15.253348">
                <ele>61.181030</ele>
                <time>2009-12-20T02:46:58Z</time>
            </trkpt>
            <trkpt lon="101.081315" lat="15.252822">
                <ele>61.661743</ele>
                <time>2009-12-20T02:47:11Z</time>
            </trkpt>
            <trkpt lon="101.081735" lat="15.251933">
                <ele>63.103638</ele>
                <time>2009-12-20T02:47:29Z</time>
            </trkpt>
            <trkpt lon="101.081936" lat="15.251753">
                <ele>62.622925</ele>
                <time>2009-12-20T02:47:34Z</time>
            </trkpt>
            <trkpt lon="101.082777" lat="15.251289">
                <ele>63.103638</ele>
                <time>2009-12-20T02:47:53Z</time>
            </trkpt>
            <trkpt lon="101.083736" lat="15.250809">
                <ele>63.584351</ele>
                <time>2009-12-20T02:48:14Z</time>
            </trkpt>
            <trkpt lon="101.084463" lat="15.250505">
                <ele>62.622925</ele>
                <time>2009-12-20T02:48:30Z</time>
            </trkpt>
            <trkpt lon="101.085112" lat="15.250344">
                <ele>61.181030</ele>
                <time>2009-12-20T02:48:47Z</time>
            </trkpt>
            <trkpt lon="101.085166" lat="15.250331">
                <ele>61.181030</ele>
                <time>2009-12-20T02:48:50Z</time>
            </trkpt>
            <trkpt lon="101.085139" lat="15.250338">
                <ele>61.661743</ele>
                <time>2009-12-20T02:48:57Z</time>
            </trkpt>
            <trkpt lon="101.084721" lat="15.250435">
                <ele>62.142334</ele>
                <time>2009-12-20T02:49:10Z</time>
            </trkpt>
            <trkpt lon="101.084062" lat="15.250649">
                <ele>62.142334</ele>
                <time>2009-12-20T02:49:25Z</time>
            </trkpt>
            <trkpt lon="101.083218" lat="15.251069">
                <ele>63.584351</ele>
                <time>2009-12-20T02:49:44Z</time>
            </trkpt>
            <trkpt lon="101.082515" lat="15.251433">
                <ele>64.065063</ele>
                <time>2009-12-20T02:50:00Z</time>
            </trkpt>
            <trkpt lon="101.081815" lat="15.251813">
                <ele>63.103638</ele>
                <time>2009-12-20T02:50:17Z</time>
            </trkpt>
            <trkpt lon="101.081427" lat="15.251780">
                <ele>63.584351</ele>
                <time>2009-12-20T02:50:28Z</time>
            </trkpt>
            <trkpt lon="101.081049" lat="15.251553">
                <ele>64.065063</ele>
                <time>2009-12-20T02:50:45Z</time>
            </trkpt>
            <trkpt lon="101.080605" lat="15.251274">
                <ele>64.545654</ele>
                <time>2009-12-20T02:51:02Z</time>
            </trkpt>
            <trkpt lon="101.080542" lat="15.251257">
                <ele>64.545654</ele>
                <time>2009-12-20T02:51:12Z</time>
            </trkpt>
            <trkpt lon="101.080248" lat="15.251167">
                <ele>64.545654</ele>
                <time>2009-12-20T02:51:22Z</time>
            </trkpt>
            <trkpt lon="101.080060" lat="15.251097">
                <ele>65.026367</ele>
                <time>2009-12-20T02:51:26Z</time>
            </trkpt>
            <trkpt lon="101.079858" lat="15.251098">
                <ele>65.026367</ele>
                <time>2009-12-20T02:51:30Z</time>
            </trkpt>
            <trkpt lon="101.079462" lat="15.251274">
                <ele>65.026367</ele>
                <time>2009-12-20T02:51:38Z</time>
            </trkpt>
            <trkpt lon="101.079265" lat="15.251471">
                <ele>65.026367</ele>
                <time>2009-12-20T02:51:43Z</time>
            </trkpt>
            <trkpt lon="101.079191" lat="15.251604">
                <ele>65.026367</ele>
                <time>2009-12-20T02:51:46Z</time>
            </trkpt>
            <trkpt lon="101.079027" lat="15.251538">
                <ele>65.507080</ele>
                <time>2009-12-20T02:51:51Z</time>
            </trkpt>
            <trkpt lon="101.078827" lat="15.251286">
                <ele>65.987671</ele>
                <time>2009-12-20T02:51:57Z</time>
            </trkpt>
            <trkpt lon="101.078558" lat="15.251151">
                <ele>66.468262</ele>
                <time>2009-12-20T02:52:03Z</time>
            </trkpt>
            <trkpt lon="101.077785" lat="15.250978">
                <ele>64.545654</ele>
                <time>2009-12-20T02:52:17Z</time>
            </trkpt>
            <trkpt lon="101.076792" lat="15.250768">
                <ele>64.545654</ele>
                <time>2009-12-20T02:52:33Z</time>
            </trkpt>
            <trkpt lon="101.076036" lat="15.250659">
                <ele>65.026367</ele>
                <time>2009-12-20T02:52:46Z</time>
            </trkpt>
            <trkpt lon="101.075063" lat="15.250504">
                <ele>65.507080</ele>
                <time>2009-12-20T02:53:03Z</time>
            </trkpt>
            <trkpt lon="101.075043" lat="15.250225">
                <ele>65.987671</ele>
                <time>2009-12-20T02:53:10Z</time>
            </trkpt>
            <trkpt lon="101.075151" lat="15.250108">
                <ele>65.987671</ele>
                <time>2009-12-20T02:53:13Z</time>
            </trkpt>
            <trkpt lon="101.075204" lat="15.249832">
                <ele>66.468262</ele>
                <time>2009-12-20T02:53:19Z</time>
            </trkpt>
            <trkpt lon="101.075184" lat="15.249740">
                <ele>66.948975</ele>
                <time>2009-12-20T02:53:21Z</time>
            </trkpt>
            <trkpt lon="101.075180" lat="15.248829">
                <ele>68.871582</ele>
                <time>2009-12-20T02:53:39Z</time>
            </trkpt>
            <trkpt lon="101.075190" lat="15.248318">
                <ele>69.832886</ele>
                <time>2009-12-20T02:53:49Z</time>
            </trkpt>
            <trkpt lon="101.075102" lat="15.247218">
                <ele>71.274902</ele>
                <time>2009-12-20T02:54:12Z</time>
            </trkpt>
            <trkpt lon="101.075051" lat="15.246779">
                <ele>72.236206</ele>
                <time>2009-12-20T02:54:22Z</time>
            </trkpt>
            <trkpt lon="101.074810" lat="15.246608">
                <ele>72.236206</ele>
                <time>2009-12-20T02:54:29Z</time>
            </trkpt>
            <trkpt lon="101.074064" lat="15.246708">
                <ele>70.794190</ele>
                <time>2009-12-20T02:54:43Z</time>
            </trkpt>
            <trkpt lon="101.073719" lat="15.246469">
                <ele>71.274902</ele>
                <time>2009-12-20T02:54:51Z</time>
            </trkpt>
            <trkpt lon="101.073707" lat="15.246414">
                <ele>71.274902</ele>
                <time>2009-12-20T02:54:52Z</time>
            </trkpt>
            <trkpt lon="101.073548" lat="15.245772">
                <ele>72.716919</ele>
                <time>2009-12-20T02:55:05Z</time>
            </trkpt>
            <trkpt lon="101.073452" lat="15.245639">
                <ele>72.236206</ele>
                <time>2009-12-20T02:55:10Z</time>
            </trkpt>
            <trkpt lon="101.072470" lat="15.245767">
                <ele>70.794190</ele>
                <time>2009-12-20T02:55:30Z</time>
            </trkpt>
            <trkpt lon="101.072169" lat="15.245800">
                <ele>70.313477</ele>
                <time>2009-12-20T02:55:36Z</time>
            </trkpt>
            <trkpt lon="101.071707" lat="15.245901">
                <ele>69.832886</ele>
                <time>2009-12-20T02:55:48Z</time>
            </trkpt>
            <trkpt lon="101.071221" lat="15.245951">
                <ele>71.274902</ele>
                <time>2009-12-20T02:56:02Z</time>
            </trkpt>
            <trkpt lon="101.070794" lat="15.245919">
                <ele>71.755493</ele>
                <time>2009-12-20T02:56:13Z</time>
            </trkpt>
            <trkpt lon="101.070500" lat="15.245870">
                <ele>71.755493</ele>
                <time>2009-12-20T02:56:20Z</time>
            </trkpt>
            <trkpt lon="101.070435" lat="15.245934">
                <ele>71.755493</ele>
                <time>2009-12-20T02:56:23Z</time>
            </trkpt>
            <trkpt lon="101.069956" lat="15.246131">
                <ele>72.236206</ele>
                <time>2009-12-20T02:56:33Z</time>
            </trkpt>
            <trkpt lon="101.068792" lat="15.246472">
                <ele>72.716919</ele>
                <time>2009-12-20T02:56:54Z</time>
            </trkpt>
            <trkpt lon="101.067943" lat="15.246814">
                <ele>74.158813</ele>
                <time>2009-12-20T02:57:09Z</time>
            </trkpt>
            <trkpt lon="101.066819" lat="15.247215">
                <ele>75.120239</ele>
                <time>2009-12-20T02:57:29Z</time>
            </trkpt>
            <trkpt lon="101.065930" lat="15.247403">
                <ele>72.716919</ele>
                <time>2009-12-20T02:57:42Z</time>
            </trkpt>
            <trkpt lon="101.064913" lat="15.247607">
                <ele>72.716919</ele>
                <time>2009-12-20T02:57:58Z</time>
            </trkpt>
            <trkpt lon="101.064195" lat="15.247766">
                <ele>72.716919</ele>
                <time>2009-12-20T02:58:12Z</time>
            </trkpt>
            <trkpt lon="101.063709" lat="15.247874">
                <ele>72.236206</ele>
                <time>2009-12-20T02:58:21Z</time>
            </trkpt>
            <trkpt lon="101.063497" lat="15.247927">
                <ele>70.794190</ele>
                <time>2009-12-20T02:58:25Z</time>
            </trkpt>
            <trkpt lon="101.063378" lat="15.247948">
                <ele>70.794190</ele>
                <time>2009-12-20T02:58:27Z</time>
            </trkpt>
            <trkpt lon="101.062723" lat="15.248142">
                <ele>73.678223</ele>
                <time>2009-12-20T02:58:39Z</time>
            </trkpt>
            <trkpt lon="101.062304" lat="15.247784">
                <ele>74.639526</ele>
                <time>2009-12-20T02:58:43Z</time>
            </trkpt>
            <trkpt lon="101.061778" lat="15.248094">
                <ele>77.523438</ele>
                <time>2009-12-20T02:59:00Z</time>
            </trkpt>
            <trkpt lon="101.061757" lat="15.248107">
                <ele>77.523438</ele>
                <time>2009-12-20T02:59:01Z</time>
            </trkpt>
            <trkpt lon="101.061746" lat="15.248160">
                <ele>78.965454</ele>
                <time>2009-12-20T02:59:06Z</time>
            </trkpt>
            <trkpt lon="101.061689" lat="15.248049">
                <ele>78.965454</ele>
                <time>2009-12-20T02:59:12Z</time>
            </trkpt>
            <trkpt lon="101.061529" lat="15.247941">
                <ele>79.446045</ele>
                <time>2009-12-20T02:59:18Z</time>
            </trkpt>
            <trkpt lon="101.061509" lat="15.247919">
                <ele>78.965454</ele>
                <time>2009-12-20T02:59:25Z</time>
            </trkpt>
            <trkpt lon="101.062080" lat="15.247549">
                <ele>77.042847</ele>
                <time>2009-12-20T02:59:39Z</time>
            </trkpt>
            <trkpt lon="101.062929" lat="15.246989">
                <ele>74.639526</ele>
                <time>2009-12-20T02:59:56Z</time>
            </trkpt>
            <trkpt lon="101.063776" lat="15.246419">
                <ele>73.197632</ele>
                <time>2009-12-20T03:00:12Z</time>
            </trkpt>
            <trkpt lon="101.063895" lat="15.246103">
                <ele>73.678223</ele>
                <time>2009-12-20T03:00:18Z</time>
            </trkpt>
            <trkpt lon="101.064025" lat="15.244876">
                <ele>72.236206</ele>
                <time>2009-12-20T03:00:36Z</time>
            </trkpt>
            <trkpt lon="101.064158" lat="15.243630">
                <ele>70.794190</ele>
                <time>2009-12-20T03:00:54Z</time>
            </trkpt>
            <trkpt lon="101.064184" lat="15.242342">
                <ele>72.716919</ele>
                <time>2009-12-20T03:01:14Z</time>
            </trkpt>
            <trkpt lon="101.064043" lat="15.241037">
                <ele>73.678223</ele>
                <time>2009-12-20T03:01:36Z</time>
            </trkpt>
            <trkpt lon="101.063994" lat="15.240575">
                <ele>74.158813</ele>
                <time>2009-12-20T03:01:44Z</time>
            </trkpt>
            <trkpt lon="101.063895" lat="15.239686">
                <ele>76.081421</ele>
                <time>2009-12-20T03:02:01Z</time>
            </trkpt>
            <trkpt lon="101.063816" lat="15.238627">
                <ele>74.639526</ele>
                <time>2009-12-20T03:02:18Z</time>
            </trkpt>
            <trkpt lon="101.063703" lat="15.237315">
                <ele>73.678223</ele>
                <time>2009-12-20T03:02:37Z</time>
            </trkpt>
            <trkpt lon="101.063346" lat="15.236236">
                <ele>76.081421</ele>
                <time>2009-12-20T03:02:56Z</time>
            </trkpt>
            <trkpt lon="101.062835" lat="15.235054">
                <ele>78.004028</ele>
                <time>2009-12-20T03:03:20Z</time>
            </trkpt>
            <trkpt lon="101.062128" lat="15.234025">
                <ele>77.523438</ele>
                <time>2009-12-20T03:03:41Z</time>
            </trkpt>
            <trkpt lon="101.061310" lat="15.233382">
                <ele>77.042847</ele>
                <time>2009-12-20T03:03:57Z</time>
            </trkpt>
            <trkpt lon="101.060563" lat="15.232907">
                <ele>78.484741</ele>
                <time>2009-12-20T03:04:12Z</time>
            </trkpt>
            <trkpt lon="101.060040" lat="15.232809">
                <ele>82.330078</ele>
                <time>2009-12-20T03:04:27Z</time>
            </trkpt>
            <trkpt lon="101.059541" lat="15.232607">
                <ele>83.771973</ele>
                <time>2009-12-20T03:04:42Z</time>
            </trkpt>
            <trkpt lon="101.059435" lat="15.231813">
                <ele>85.694580</ele>
                <time>2009-12-20T03:05:00Z</time>
            </trkpt>
            <trkpt lon="101.059498" lat="15.231189">
                <ele>88.578735</ele>
                <time>2009-12-20T03:05:18Z</time>
            </trkpt>
            <trkpt lon="101.059740" lat="15.230548">
                <ele>90.981934</ele>
                <time>2009-12-20T03:05:39Z</time>
            </trkpt>
            <trkpt lon="101.060069" lat="15.229674">
                <ele>91.943237</ele>
                <time>2009-12-20T03:06:00Z</time>
            </trkpt>
            <trkpt lon="101.060242" lat="15.228811">
                <ele>89.059326</ele>
                <time>2009-12-20T03:06:13Z</time>
            </trkpt>
            <trkpt lon="101.060603" lat="15.227704">
                <ele>87.617188</ele>
                <time>2009-12-20T03:06:29Z</time>
            </trkpt>
            <trkpt lon="101.060922" lat="15.226703">
                <ele>90.020630</ele>
                <time>2009-12-20T03:06:48Z</time>
            </trkpt>
            <trkpt lon="101.060924" lat="15.225780">
                <ele>88.578735</ele>
                <time>2009-12-20T03:07:03Z</time>
            </trkpt>
            <trkpt lon="101.060646" lat="15.224937">
                <ele>89.539917</ele>
                <time>2009-12-20T03:07:17Z</time>
            </trkpt>
            <trkpt lon="101.060187" lat="15.224172">
                <ele>91.462524</ele>
                <time>2009-12-20T03:07:33Z</time>
            </trkpt>
            <trkpt lon="101.059377" lat="15.223200">
                <ele>91.462524</ele>
                <time>2009-12-20T03:07:52Z</time>
            </trkpt>
            <trkpt lon="101.058984" lat="15.222588">
                <ele>90.501343</ele>
                <time>2009-12-20T03:08:04Z</time>
            </trkpt>
            <trkpt lon="101.058994" lat="15.222608">
                <ele>89.539917</ele>
                <time>2009-12-20T03:08:10Z</time>
            </trkpt>
            <trkpt lon="101.059061" lat="15.222758">
                <ele>89.059326</ele>
                <time>2009-12-20T03:08:15Z</time>
            </trkpt>
            <trkpt lon="101.059170" lat="15.222801">
                <ele>88.578735</ele>
                <time>2009-12-20T03:08:19Z</time>
            </trkpt>
            <trkpt lon="101.059844" lat="15.222696">
                <ele>87.136597</ele>
                <time>2009-12-20T03:08:33Z</time>
            </trkpt>
            <trkpt lon="101.060833" lat="15.222606">
                <ele>84.733398</ele>
                <time>2009-12-20T03:08:49Z</time>
            </trkpt>
            <trkpt lon="101.061080" lat="15.222600">
                <ele>84.252685</ele>
                <time>2009-12-20T03:08:53Z</time>
            </trkpt>
            <trkpt lon="101.061203" lat="15.222584">
                <ele>83.771973</ele>
                <time>2009-12-20T03:08:55Z</time>
            </trkpt>
            <trkpt lon="101.061464" lat="15.222573">
                <ele>82.810791</ele>
                <time>2009-12-20T03:08:59Z</time>
            </trkpt>
            <trkpt lon="101.061862" lat="15.222369">
                <ele>80.407471</ele>
                <time>2009-12-20T03:09:08Z</time>
            </trkpt>
            <trkpt lon="101.061853" lat="15.222312">
                <ele>79.926636</ele>
                <time>2009-12-20T03:09:09Z</time>
            </trkpt>
            <trkpt lon="101.061817" lat="15.222075">
                <ele>79.926636</ele>
                <time>2009-12-20T03:09:13Z</time>
            </trkpt>
            <trkpt lon="101.061763" lat="15.221967">
                <ele>79.926636</ele>
                <time>2009-12-20T03:09:15Z</time>
            </trkpt>
            <trkpt lon="101.061787" lat="15.221309">
                <ele>80.407471</ele>
                <time>2009-12-20T03:09:27Z</time>
            </trkpt>
            <trkpt lon="101.061835" lat="15.220944">
                <ele>80.888184</ele>
                <time>2009-12-20T03:09:34Z</time>
            </trkpt>
            <trkpt lon="101.061987" lat="15.220703">
                <ele>80.888184</ele>
                <time>2009-12-20T03:09:39Z</time>
            </trkpt>
            <trkpt lon="101.062496" lat="15.219983">
                <ele>79.926636</ele>
                <time>2009-12-20T03:09:54Z</time>
            </trkpt>
            <trkpt lon="101.062515" lat="15.219945">
                <ele>79.926636</ele>
                <time>2009-12-20T03:09:55Z</time>
            </trkpt>
            <trkpt lon="101.062367" lat="15.219995">
                <ele>79.926636</ele>
                <time>2009-12-20T03:10:01Z</time>
            </trkpt>
            <trkpt lon="101.061987" lat="15.220156">
                <ele>80.888184</ele>
                <time>2009-12-20T03:10:15Z</time>
            </trkpt>
            <trkpt lon="101.061972" lat="15.220161">
                <ele>80.888184</ele>
                <time>2009-12-20T03:10:16Z</time>
            </trkpt>
            <trkpt lon="101.061922" lat="15.220178">
                <ele>82.330078</ele>
                <time>2009-12-20T03:10:28Z</time>
            </trkpt>
            <trkpt lon="101.061922" lat="15.220178">
                <ele>83.771973</ele>
                <time>2009-12-20T03:10:46Z</time>
            </trkpt>
            <trkpt lon="101.062181" lat="15.220088">
                <ele>80.407471</ele>
                <time>2009-12-20T03:10:56Z</time>
            </trkpt>
            <trkpt lon="101.062329" lat="15.220014">
                <ele>79.446045</ele>
                <time>2009-12-20T03:11:00Z</time>
            </trkpt>
            <trkpt lon="101.062583" lat="15.219803">
                <ele>78.965454</ele>
                <time>2009-12-20T03:11:07Z</time>
            </trkpt>
            <trkpt lon="101.063484" lat="15.219375">
                <ele>76.562134</ele>
                <time>2009-12-20T03:11:23Z</time>
            </trkpt>
            <trkpt lon="101.064190" lat="15.219040">
                <ele>75.120239</ele>
                <time>2009-12-20T03:11:34Z</time>
            </trkpt>
            <trkpt lon="101.064380" lat="15.218845">
                <ele>75.120239</ele>
                <time>2009-12-20T03:11:38Z</time>
            </trkpt>
            <trkpt lon="101.064975" lat="15.217951">
                <ele>71.274902</ele>
                <time>2009-12-20T03:11:53Z</time>
            </trkpt>
            <trkpt lon="101.065962" lat="15.216848">
                <ele>70.313477</ele>
                <time>2009-12-20T03:12:13Z</time>
            </trkpt>
            <trkpt lon="101.066834" lat="15.215881">
                <ele>71.755493</ele>
                <time>2009-12-20T03:12:32Z</time>
            </trkpt>
            <trkpt lon="101.067584" lat="15.215035">
                <ele>71.274902</ele>
                <time>2009-12-20T03:12:50Z</time>
            </trkpt>
            <trkpt lon="101.068357" lat="15.214154">
                <ele>71.274902</ele>
                <time>2009-12-20T03:13:10Z</time>
            </trkpt>
            <trkpt lon="101.069042" lat="15.213359">
                <ele>73.197632</ele>
                <time>2009-12-20T03:13:30Z</time>
            </trkpt>
            <trkpt lon="101.069723" lat="15.212570">
                <ele>74.158813</ele>
                <time>2009-12-20T03:13:50Z</time>
            </trkpt>
            <trkpt lon="101.070263" lat="15.211953">
                <ele>72.236206</ele>
                <time>2009-12-20T03:14:05Z</time>
            </trkpt>
            <trkpt lon="101.070822" lat="15.211329">
                <ele>70.794190</ele>
                <time>2009-12-20T03:14:19Z</time>
            </trkpt>
            <trkpt lon="101.071470" lat="15.210597">
                <ele>69.352295</ele>
                <time>2009-12-20T03:14:35Z</time>
            </trkpt>
            <trkpt lon="101.072221" lat="15.209754">
                <ele>72.236206</ele>
                <time>2009-12-20T03:14:55Z</time>
            </trkpt>
            <trkpt lon="101.072709" lat="15.209209">
                <ele>73.197632</ele>
                <time>2009-12-20T03:15:09Z</time>
            </trkpt>
            <trkpt lon="101.072833" lat="15.209293">
                <ele>73.197632</ele>
                <time>2009-12-20T03:15:14Z</time>
            </trkpt>
            <trkpt lon="101.073298" lat="15.209850">
                <ele>73.678223</ele>
                <time>2009-12-20T03:15:32Z</time>
            </trkpt>
            <trkpt lon="101.073412" lat="15.210176">
                <ele>77.523438</ele>
                <time>2009-12-20T03:15:41Z</time>
            </trkpt>
            <trkpt lon="101.073622" lat="15.210435">
                <ele>78.004028</ele>
                <time>2009-12-20T03:15:52Z</time>
            </trkpt>
            <trkpt lon="101.073690" lat="15.210469">
                <ele>77.523438</ele>
                <time>2009-12-20T03:15:54Z</time>
            </trkpt>
            <trkpt lon="101.073781" lat="15.210496">
                <ele>77.042847</ele>
                <time>2009-12-20T03:15:56Z</time>
            </trkpt>
            <trkpt lon="101.073958" lat="15.210543">
                <ele>77.042847</ele>
                <time>2009-12-20T03:16:00Z</time>
            </trkpt>
            <trkpt lon="101.074044" lat="15.210565">
                <ele>76.562134</ele>
                <time>2009-12-20T03:16:02Z</time>
            </trkpt>
            <trkpt lon="101.074459" lat="15.210712">
                <ele>77.523438</ele>
                <time>2009-12-20T03:16:13Z</time>
            </trkpt>
            <trkpt lon="101.074845" lat="15.211035">
                <ele>78.484741</ele>
                <time>2009-12-20T03:16:28Z</time>
            </trkpt>
            <trkpt lon="101.075128" lat="15.211373">
                <ele>77.523438</ele>
                <time>2009-12-20T03:16:41Z</time>
            </trkpt>
            <trkpt lon="101.075371" lat="15.211669">
                <ele>77.523438</ele>
                <time>2009-12-20T03:16:52Z</time>
            </trkpt>
            <trkpt lon="101.075320" lat="15.211787">
                <ele>77.523438</ele>
                <time>2009-12-20T03:16:56Z</time>
            </trkpt>
            <trkpt lon="101.075108" lat="15.212253">
                <ele>77.523438</ele>
                <time>2009-12-20T03:17:11Z</time>
            </trkpt>
            <trkpt lon="101.075156" lat="15.212319">
                <ele>78.004028</ele>
                <time>2009-12-20T03:17:14Z</time>
            </trkpt>
            <trkpt lon="101.075632" lat="15.212194">
                <ele>79.446045</ele>
                <time>2009-12-20T03:17:29Z</time>
            </trkpt>
            <trkpt lon="101.076128" lat="15.211950">
                <ele>81.368774</ele>
                <time>2009-12-20T03:17:46Z</time>
            </trkpt>
            <trkpt lon="101.076443" lat="15.211637">
                <ele>83.291382</ele>
                <time>2009-12-20T03:18:03Z</time>
            </trkpt>
            <trkpt lon="101.076717" lat="15.211516">
                <ele>85.694580</ele>
                <time>2009-12-20T03:18:17Z</time>
            </trkpt>
            <trkpt lon="101.077105" lat="15.211561">
                <ele>87.617188</ele>
                <time>2009-12-20T03:18:35Z</time>
            </trkpt>
            <trkpt lon="101.077452" lat="15.211637">
                <ele>88.578735</ele>
                <time>2009-12-20T03:18:51Z</time>
            </trkpt>
            <trkpt lon="101.077766" lat="15.211772">
                <ele>89.539917</ele>
                <time>2009-12-20T03:19:05Z</time>
            </trkpt>
            <trkpt lon="101.078126" lat="15.211911">
                <ele>90.501343</ele>
                <time>2009-12-20T03:19:20Z</time>
            </trkpt>
            <trkpt lon="101.078296" lat="15.212104">
                <ele>90.981934</ele>
                <time>2009-12-20T03:19:30Z</time>
            </trkpt>
            <trkpt lon="101.078600" lat="15.212178">
                <ele>91.462524</ele>
                <time>2009-12-20T03:19:42Z</time>
            </trkpt>
            <trkpt lon="101.078997" lat="15.212272">
                <ele>93.385132</ele>
                <time>2009-12-20T03:19:58Z</time>
            </trkpt>
            <trkpt lon="101.079315" lat="15.212361">
                <ele>93.385132</ele>
                <time>2009-12-20T03:20:12Z</time>
            </trkpt>
            <trkpt lon="101.079450" lat="15.212729">
                <ele>92.423950</ele>
                <time>2009-12-20T03:20:24Z</time>
            </trkpt>
            <trkpt lon="101.079516" lat="15.213022">
                <ele>94.346558</ele>
                <time>2009-12-20T03:20:36Z</time>
            </trkpt>
            <trkpt lon="101.079509" lat="15.213086">
                <ele>93.865845</ele>
                <time>2009-12-20T03:20:39Z</time>
            </trkpt>
            <trkpt lon="101.079590" lat="15.213093">
                <ele>94.827148</ele>
                <time>2009-12-20T03:20:45Z</time>
            </trkpt>
            <trkpt lon="101.080018" lat="15.212979">
                <ele>96.269287</ele>
                <time>2009-12-20T03:21:02Z</time>
            </trkpt>
            <trkpt lon="101.080093" lat="15.212922">
                <ele>95.788452</ele>
                <time>2009-12-20T03:21:05Z</time>
            </trkpt>
            <trkpt lon="101.080183" lat="15.213029">
                <ele>96.749878</ele>
                <time>2009-12-20T03:21:12Z</time>
            </trkpt>
            <trkpt lon="101.080241" lat="15.213373">
                <ele>97.711182</ele>
                <time>2009-12-20T03:21:27Z</time>
            </trkpt>
            <trkpt lon="101.080263" lat="15.213407">
                <ele>97.711182</ele>
                <time>2009-12-20T03:21:29Z</time>
            </trkpt>
            <trkpt lon="101.080413" lat="15.213377">
                <ele>98.191895</ele>
                <time>2009-12-20T03:21:37Z</time>
            </trkpt>
            <trkpt lon="101.080726" lat="15.213250">
                <ele>100.595093</ele>
                <time>2009-12-20T03:21:51Z</time>
            </trkpt>
            <trkpt lon="101.081036" lat="15.213075">
                <ele>102.998291</ele>
                <time>2009-12-20T03:22:06Z</time>
            </trkpt>
            <trkpt lon="101.081189" lat="15.212822">
                <ele>104.921020</ele>
                <time>2009-12-20T03:22:19Z</time>
            </trkpt>
            <trkpt lon="101.081384" lat="15.212775">
                <ele>104.921020</ele>
                <time>2009-12-20T03:22:29Z</time>
            </trkpt>
            <trkpt lon="101.081442" lat="15.212790">
                <ele>105.401733</ele>
                <time>2009-12-20T03:22:41Z</time>
            </trkpt>
            <trkpt lon="101.081474" lat="15.212810">
                <ele>105.401733</ele>
                <time>2009-12-20T03:22:56Z</time>
            </trkpt>
            <trkpt lon="101.081685" lat="15.212919">
                <ele>105.882446</ele>
                <time>2009-12-20T03:23:08Z</time>
            </trkpt>
            <trkpt lon="101.081964" lat="15.213098">
                <ele>105.401733</ele>
                <time>2009-12-20T03:23:22Z</time>
            </trkpt>
            <trkpt lon="101.082123" lat="15.213188">
                <ele>102.998291</ele>
                <time>2009-12-20T03:23:32Z</time>
            </trkpt>
            <trkpt lon="101.082132" lat="15.213232">
                <ele>102.517700</ele>
                <time>2009-12-20T03:23:44Z</time>
            </trkpt>
            <trkpt lon="101.082156" lat="15.213169">
                <ele>103.479004</ele>
                <time>2009-12-20T03:23:57Z</time>
            </trkpt>
            <trkpt lon="101.082170" lat="15.213154">
                <ele>103.479004</ele>
                <time>2009-12-20T03:24:02Z</time>
            </trkpt>
            <trkpt lon="101.082252" lat="15.213165">
                <ele>102.517700</ele>
                <time>2009-12-20T03:24:06Z</time>
            </trkpt>
            <trkpt lon="101.082622" lat="15.213169">
                <ele>100.114502</ele>
                <time>2009-12-20T03:24:18Z</time>
            </trkpt>
            <trkpt lon="101.082995" lat="15.213000">
                <ele>96.749878</ele>
                <time>2009-12-20T03:24:30Z</time>
            </trkpt>
            <trkpt lon="101.083015" lat="15.212988">
                <ele>96.749878</ele>
                <time>2009-12-20T03:24:31Z</time>
            </trkpt>
            <trkpt lon="101.083275" lat="15.212717">
                <ele>96.749878</ele>
                <time>2009-12-20T03:24:45Z</time>
            </trkpt>
            <trkpt lon="101.083360" lat="15.212593">
                <ele>97.230469</ele>
                <time>2009-12-20T03:24:56Z</time>
            </trkpt>
            <trkpt lon="101.083358" lat="15.212589">
                <ele>97.711182</ele>
                <time>2009-12-20T03:24:58Z</time>
            </trkpt>
            <trkpt lon="101.083367" lat="15.212416">
                <ele>100.595093</ele>
                <time>2009-12-20T03:25:16Z</time>
            </trkpt>
            <trkpt lon="101.083385" lat="15.212402">
                <ele>101.075684</ele>
                <time>2009-12-20T03:25:24Z</time>
            </trkpt>
            <trkpt lon="101.083613" lat="15.212253">
                <ele>98.672485</ele>
                <time>2009-12-20T03:25:36Z</time>
            </trkpt>
            <trkpt lon="101.083694" lat="15.212239">
                <ele>98.672485</ele>
                <time>2009-12-20T03:25:40Z</time>
            </trkpt>
            <trkpt lon="101.083761" lat="15.212353">
                <ele>97.230469</ele>
                <time>2009-12-20T03:25:48Z</time>
            </trkpt>
            <trkpt lon="101.083819" lat="15.212485">
                <ele>97.230469</ele>
                <time>2009-12-20T03:25:55Z</time>
            </trkpt>
            <trkpt lon="101.083817" lat="15.212625">
                <ele>97.230469</ele>
                <time>2009-12-20T03:26:07Z</time>
            </trkpt>
            <trkpt lon="101.083838" lat="15.212679">
                <ele>97.230469</ele>
                <time>2009-12-20T03:26:15Z</time>
            </trkpt>
            <trkpt lon="101.083919" lat="15.212709">
                <ele>97.230469</ele>
                <time>2009-12-20T03:26:25Z</time>
            </trkpt>
            <trkpt lon="101.084063" lat="15.213029">
                <ele>95.307739</ele>
                <time>2009-12-20T03:26:39Z</time>
            </trkpt>
            <trkpt lon="101.084081" lat="15.213114">
                <ele>95.307739</ele>
                <time>2009-12-20T03:26:44Z</time>
            </trkpt>
            <trkpt lon="101.084132" lat="15.213230">
                <ele>94.346558</ele>
                <time>2009-12-20T03:26:55Z</time>
            </trkpt>
            <trkpt lon="101.084212" lat="15.213537">
                <ele>92.904541</ele>
                <time>2009-12-20T03:27:06Z</time>
            </trkpt>
            <trkpt lon="101.084244" lat="15.213683">
                <ele>92.904541</ele>
                <time>2009-12-20T03:27:11Z</time>
            </trkpt>
            <trkpt lon="101.084115" lat="15.213995">
                <ele>91.943237</ele>
                <time>2009-12-20T03:27:25Z</time>
            </trkpt>
            <trkpt lon="101.084277" lat="15.214215">
                <ele>89.539917</ele>
                <time>2009-12-20T03:27:37Z</time>
            </trkpt>
            <trkpt lon="101.084414" lat="15.214299">
                <ele>88.578735</ele>
                <time>2009-12-20T03:27:41Z</time>
            </trkpt>
            <trkpt lon="101.084682" lat="15.214571">
                <ele>87.136597</ele>
                <time>2009-12-20T03:27:52Z</time>
            </trkpt>
            <trkpt lon="101.084776" lat="15.214666">
                <ele>86.175293</ele>
                <time>2009-12-20T03:27:56Z</time>
            </trkpt>
            <trkpt lon="101.084923" lat="15.214750">
                <ele>85.213989</ele>
                <time>2009-12-20T03:28:00Z</time>
            </trkpt>
            <trkpt lon="101.085086" lat="15.214856">
                <ele>83.771973</ele>
                <time>2009-12-20T03:28:04Z</time>
            </trkpt>
            <trkpt lon="101.085266" lat="15.214928">
                <ele>82.330078</ele>
                <time>2009-12-20T03:28:08Z</time>
            </trkpt>
            <trkpt lon="101.085914" lat="15.215331">
                <ele>78.004028</ele>
                <time>2009-12-20T03:28:23Z</time>
            </trkpt>
            <trkpt lon="101.086036" lat="15.215423">
                <ele>77.042847</ele>
                <time>2009-12-20T03:28:26Z</time>
            </trkpt>
            <trkpt lon="101.086394" lat="15.215993">
                <ele>75.120239</ele>
                <time>2009-12-20T03:28:39Z</time>
            </trkpt>
            <trkpt lon="101.086539" lat="15.216161">
                <ele>74.639526</ele>
                <time>2009-12-20T03:28:43Z</time>
            </trkpt>
            <trkpt lon="101.086991" lat="15.216267">
                <ele>74.639526</ele>
                <time>2009-12-20T03:28:54Z</time>
            </trkpt>
            <trkpt lon="101.087138" lat="15.216350">
                <ele>73.678223</ele>
                <time>2009-12-20T03:28:58Z</time>
            </trkpt>
            <trkpt lon="101.087234" lat="15.216454">
                <ele>72.236206</ele>
                <time>2009-12-20T03:29:01Z</time>
            </trkpt>
            <trkpt lon="101.087469" lat="15.216567">
                <ele>70.794190</ele>
                <time>2009-12-20T03:29:06Z</time>
            </trkpt>
            <trkpt lon="101.087833" lat="15.216594">
                <ele>68.871582</ele>
                <time>2009-12-20T03:29:13Z</time>
            </trkpt>
            <trkpt lon="101.088277" lat="15.216504">
                <ele>67.429688</ele>
                <time>2009-12-20T03:29:21Z</time>
            </trkpt>
            <trkpt lon="101.088685" lat="15.216452">
                <ele>65.026367</ele>
                <time>2009-12-20T03:29:32Z</time>
            </trkpt>
            <trkpt lon="101.088715" lat="15.216504">
                <ele>65.026367</ele>
                <time>2009-12-20T03:29:37Z</time>
            </trkpt>
            <trkpt lon="101.088756" lat="15.216925">
                <ele>65.987671</ele>
                <time>2009-12-20T03:29:50Z</time>
            </trkpt>
            <trkpt lon="101.088761" lat="15.217050">
                <ele>66.468262</ele>
                <time>2009-12-20T03:29:53Z</time>
            </trkpt>
            <trkpt lon="101.089027" lat="15.217542">
                <ele>66.468262</ele>
                <time>2009-12-20T03:30:09Z</time>
            </trkpt>
            <trkpt lon="101.089730" lat="15.217612">
                <ele>64.065063</ele>
                <time>2009-12-20T03:30:25Z</time>
            </trkpt>
            <trkpt lon="101.090613" lat="15.217642">
                <ele>60.700317</ele>
                <time>2009-12-20T03:30:39Z</time>
            </trkpt>
            <trkpt lon="101.090789" lat="15.217648">
                <ele>60.700317</ele>
                <time>2009-12-20T03:30:42Z</time>
            </trkpt>
            <trkpt lon="101.091029" lat="15.217683">
                <ele>59.739136</ele>
                <time>2009-12-20T03:30:50Z</time>
            </trkpt>
            <trkpt lon="101.091049" lat="15.217970">
                <ele>61.661743</ele>
                <time>2009-12-20T03:31:02Z</time>
            </trkpt>
            <trkpt lon="101.091053" lat="15.218131">
                <ele>61.661743</ele>
                <time>2009-12-20T03:31:06Z</time>
            </trkpt>
            <trkpt lon="101.091071" lat="15.218788">
                <ele>62.142334</ele>
                <time>2009-12-20T03:31:21Z</time>
            </trkpt>
            <trkpt lon="101.091076" lat="15.218979">
                <ele>60.700317</ele>
                <time>2009-12-20T03:31:25Z</time>
            </trkpt>
            <trkpt lon="101.091043" lat="15.219912">
                <ele>57.335815</ele>
                <time>2009-12-20T03:31:42Z</time>
            </trkpt>
            <trkpt lon="101.091080" lat="15.220619">
                <ele>56.855103</ele>
                <time>2009-12-20T03:31:54Z</time>
            </trkpt>
            <trkpt lon="101.091084" lat="15.221493">
                <ele>54.932373</ele>
                <time>2009-12-20T03:32:10Z</time>
            </trkpt>
            <trkpt lon="101.090977" lat="15.221773">
                <ele>54.451782</ele>
                <time>2009-12-20T03:32:22Z</time>
            </trkpt>
            <trkpt lon="101.090981" lat="15.222254">
                <ele>55.413086</ele>
                <time>2009-12-20T03:32:35Z</time>
            </trkpt>
            <trkpt lon="101.090911" lat="15.222901">
                <ele>54.932373</ele>
                <time>2009-12-20T03:32:49Z</time>
            </trkpt>
            <trkpt lon="101.090822" lat="15.223481">
                <ele>58.297119</ele>
                <time>2009-12-20T03:33:05Z</time>
            </trkpt>
            <trkpt lon="101.090665" lat="15.224008">
                <ele>59.739136</ele>
                <time>2009-12-20T03:33:21Z</time>
            </trkpt>
            <trkpt lon="101.090377" lat="15.224782">
                <ele>60.700317</ele>
                <time>2009-12-20T03:33:39Z</time>
            </trkpt>
            <trkpt lon="101.090062" lat="15.225531">
                <ele>60.219727</ele>
                <time>2009-12-20T03:33:54Z</time>
            </trkpt>
            <trkpt lon="101.090012" lat="15.225838">
                <ele>59.739136</ele>
                <time>2009-12-20T03:34:00Z</time>
            </trkpt>
            <trkpt lon="101.090546" lat="15.226810">
                <ele>58.777710</ele>
                <time>2009-12-20T03:34:20Z</time>
            </trkpt>
            <trkpt lon="101.091250" lat="15.228076">
                <ele>57.335815</ele>
                <time>2009-12-20T03:34:46Z</time>
            </trkpt>
            <trkpt lon="101.091619" lat="15.228709">
                <ele>54.451782</ele>
                <time>2009-12-20T03:34:59Z</time>
            </trkpt>
            <trkpt lon="101.091647" lat="15.228758">
                <ele>54.932373</ele>
                <time>2009-12-20T03:35:00Z</time>
            </trkpt>
            <trkpt lon="101.091921" lat="15.228873">
                <ele>53.971191</ele>
                <time>2009-12-20T03:35:06Z</time>
            </trkpt>
            <trkpt lon="101.092279" lat="15.228743">
                <ele>53.971191</ele>
                <time>2009-12-20T03:35:13Z</time>
            </trkpt>
            <trkpt lon="101.092557" lat="15.228872">
                <ele>52.529175</ele>
                <time>2009-12-20T03:35:20Z</time>
            </trkpt>
            <trkpt lon="101.092595" lat="15.228945">
                <ele>52.529175</ele>
                <time>2009-12-20T03:35:21Z</time>
            </trkpt>
            <trkpt lon="101.092830" lat="15.229385">
                <ele>50.606567</ele>
                <time>2009-12-20T03:35:29Z</time>
            </trkpt>
            <trkpt lon="101.093134" lat="15.229436">
                <ele>49.645264</ele>
                <time>2009-12-20T03:35:34Z</time>
            </trkpt>
            <trkpt lon="101.093538" lat="15.229374">
                <ele>49.645264</ele>
                <time>2009-12-20T03:35:40Z</time>
            </trkpt>
            <trkpt lon="101.093774" lat="15.229511">
                <ele>49.164551</ele>
                <time>2009-12-20T03:35:46Z</time>
            </trkpt>
            <trkpt lon="101.093821" lat="15.229605">
                <ele>49.645264</ele>
                <time>2009-12-20T03:35:48Z</time>
            </trkpt>
            <trkpt lon="101.094015" lat="15.230231">
                <ele>52.048584</ele>
                <time>2009-12-20T03:36:03Z</time>
            </trkpt>
            <trkpt lon="101.094253" lat="15.230977">
                <ele>53.971191</ele>
                <time>2009-12-20T03:36:20Z</time>
            </trkpt>
            <trkpt lon="101.094597" lat="15.231873">
                <ele>56.374512</ele>
                <time>2009-12-20T03:36:39Z</time>
            </trkpt>
            <trkpt lon="101.094658" lat="15.232034">
                <ele>56.855103</ele>
                <time>2009-12-20T03:36:44Z</time>
            </trkpt>
            <trkpt lon="101.094676" lat="15.232080">
                <ele>56.855103</ele>
                <time>2009-12-20T03:36:46Z</time>
            </trkpt>
            <trkpt lon="101.094862" lat="15.232494">
                <ele>56.855103</ele>
                <time>2009-12-20T03:36:57Z</time>
            </trkpt>
            <trkpt lon="101.094931" lat="15.232642">
                <ele>56.855103</ele>
                <time>2009-12-20T03:37:01Z</time>
            </trkpt>
            <trkpt lon="101.094999" lat="15.232781">
                <ele>56.374512</ele>
                <time>2009-12-20T03:37:05Z</time>
            </trkpt>
            <trkpt lon="101.095304" lat="15.233353">
                <ele>54.451782</ele>
                <time>2009-12-20T03:37:18Z</time>
            </trkpt>
            <trkpt lon="101.095724" lat="15.234215">
                <ele>51.087158</ele>
                <time>2009-12-20T03:37:33Z</time>
            </trkpt>
            <trkpt lon="101.095891" lat="15.234561">
                <ele>51.087158</ele>
                <time>2009-12-20T03:37:40Z</time>
            </trkpt>
            <trkpt lon="101.095964" lat="15.234797">
                <ele>51.087158</ele>
                <time>2009-12-20T03:37:44Z</time>
            </trkpt>
            <trkpt lon="101.095940" lat="15.235948">
                <ele>51.087158</ele>
                <time>2009-12-20T03:38:07Z</time>
            </trkpt>
            <trkpt lon="101.095961" lat="15.236801">
                <ele>51.087158</ele>
                <time>2009-12-20T03:38:25Z</time>
            </trkpt>
            <trkpt lon="101.095934" lat="15.238051">
                <ele>52.529175</ele>
                <time>2009-12-20T03:38:50Z</time>
            </trkpt>
            <trkpt lon="101.095900" lat="15.238891">
                <ele>53.971191</ele>
                <time>2009-12-20T03:39:10Z</time>
            </trkpt>
            <trkpt lon="101.095686" lat="15.239476">
                <ele>56.855103</ele>
                <time>2009-12-20T03:39:28Z</time>
            </trkpt>
            <trkpt lon="101.095529" lat="15.240009">
                <ele>58.297119</ele>
                <time>2009-12-20T03:39:45Z</time>
            </trkpt>
            <trkpt lon="101.095278" lat="15.240652">
                <ele>59.739136</ele>
                <time>2009-12-20T03:40:05Z</time>
            </trkpt>
            <trkpt lon="101.094886" lat="15.241183">
                <ele>61.661743</ele>
                <time>2009-12-20T03:40:24Z</time>
            </trkpt>
            <trkpt lon="101.094505" lat="15.241540">
                <ele>63.103638</ele>
                <time>2009-12-20T03:40:38Z</time>
            </trkpt>
            <trkpt lon="101.094009" lat="15.242262">
                <ele>63.584351</ele>
                <time>2009-12-20T03:40:58Z</time>
            </trkpt>
            <trkpt lon="101.093964" lat="15.242339">
                <ele>64.065063</ele>
                <time>2009-12-20T03:41:00Z</time>
            </trkpt>
            <trkpt lon="101.093561" lat="15.243078">
                <ele>65.026367</ele>
                <time>2009-12-20T03:41:18Z</time>
            </trkpt>
            <trkpt lon="101.093262" lat="15.243917">
                <ele>63.103638</ele>
                <time>2009-12-20T03:41:34Z</time>
            </trkpt>
            <trkpt lon="101.092898" lat="15.245004">
                <ele>61.661743</ele>
                <time>2009-12-20T03:41:53Z</time>
            </trkpt>
            <trkpt lon="101.092517" lat="15.245900">
                <ele>58.777710</ele>
                <time>2009-12-20T03:42:08Z</time>
            </trkpt>
            <trkpt lon="101.092534" lat="15.246180">
                <ele>56.855103</ele>
                <time>2009-12-20T03:42:14Z</time>
            </trkpt>
            <trkpt lon="101.092919" lat="15.246565">
                <ele>54.932373</ele>
                <time>2009-12-20T03:42:21Z</time>
            </trkpt>
            <trkpt lon="101.093112" lat="15.246788">
                <ele>54.451782</ele>
                <time>2009-12-20T03:42:25Z</time>
            </trkpt>
            <trkpt lon="101.093259" lat="15.246903">
                <ele>54.932373</ele>
                <time>2009-12-20T03:42:28Z</time>
            </trkpt>
            <trkpt lon="101.093346" lat="15.247197">
                <ele>55.413086</ele>
                <time>2009-12-20T03:42:34Z</time>
            </trkpt>
            <trkpt lon="101.093264" lat="15.247539">
                <ele>55.413086</ele>
                <time>2009-12-20T03:42:40Z</time>
            </trkpt>
            <trkpt lon="101.093455" lat="15.247966">
                <ele>54.932373</ele>
                <time>2009-12-20T03:42:49Z</time>
            </trkpt>
            <trkpt lon="101.093620" lat="15.248011">
                <ele>54.932373</ele>
                <time>2009-12-20T03:42:52Z</time>
            </trkpt>
            <trkpt lon="101.093732" lat="15.248233">
                <ele>54.932373</ele>
                <time>2009-12-20T03:42:58Z</time>
            </trkpt>
            <trkpt lon="101.093608" lat="15.248481">
                <ele>54.451782</ele>
                <time>2009-12-20T03:43:04Z</time>
            </trkpt>
            <trkpt lon="101.093839" lat="15.248606">
                <ele>53.490479</ele>
                <time>2009-12-20T03:43:12Z</time>
            </trkpt>
            <trkpt lon="101.093893" lat="15.248648">
                <ele>53.971191</ele>
                <time>2009-12-20T03:43:15Z</time>
            </trkpt>
            <trkpt lon="101.093893" lat="15.249127">
                <ele>54.932373</ele>
                <time>2009-12-20T03:43:28Z</time>
            </trkpt>
            <trkpt lon="101.094098" lat="15.249399">
                <ele>55.413086</ele>
                <time>2009-12-20T03:43:37Z</time>
            </trkpt>
            <trkpt lon="101.094139" lat="15.249410">
                <ele>55.893799</ele>
                <time>2009-12-20T03:43:38Z</time>
            </trkpt>
            <trkpt lon="101.094682" lat="15.249435">
                <ele>58.297119</ele>
                <time>2009-12-20T03:43:54Z</time>
            </trkpt>
            <trkpt lon="101.095457" lat="15.249470">
                <ele>58.777710</ele>
                <time>2009-12-20T03:44:13Z</time>
            </trkpt>
            <trkpt lon="101.096295" lat="15.249514">
                <ele>60.700317</ele>
                <time>2009-12-20T03:44:34Z</time>
            </trkpt>
            <trkpt lon="101.096896" lat="15.249555">
                <ele>63.103638</ele>
                <time>2009-12-20T03:44:54Z</time>
            </trkpt>
            <trkpt lon="101.097443" lat="15.249593">
                <ele>65.026367</ele>
                <time>2009-12-20T03:45:14Z</time>
            </trkpt>
            <trkpt lon="101.098024" lat="15.249629">
                <ele>66.948975</ele>
                <time>2009-12-20T03:45:33Z</time>
            </trkpt>
            <trkpt lon="101.098688" lat="15.249660">
                <ele>64.065063</ele>
                <time>2009-12-20T03:45:49Z</time>
            </trkpt>
            <trkpt lon="101.099487" lat="15.249700">
                <ele>61.661743</ele>
                <time>2009-12-20T03:46:01Z</time>
            </trkpt>
            <trkpt lon="101.100281" lat="15.249760">
                <ele>62.142334</ele>
                <time>2009-12-20T03:46:15Z</time>
            </trkpt>
            <trkpt lon="101.100669" lat="15.249788">
                <ele>64.065063</ele>
                <time>2009-12-20T03:46:28Z</time>
            </trkpt>
            <trkpt lon="101.101085" lat="15.249818">
                <ele>66.948975</ele>
                <time>2009-12-20T03:46:46Z</time>
            </trkpt>
            <trkpt lon="101.101441" lat="15.249841">
                <ele>68.390869</ele>
                <time>2009-12-20T03:47:02Z</time>
            </trkpt>
            <trkpt lon="101.101838" lat="15.249856">
                <ele>66.948975</ele>
                <time>2009-12-20T03:47:12Z</time>
            </trkpt>
            <trkpt lon="101.102745" lat="15.249931">
                <ele>65.507080</ele>
                <time>2009-12-20T03:47:30Z</time>
            </trkpt>
            <trkpt lon="101.103346" lat="15.249975">
                <ele>65.987671</ele>
                <time>2009-12-20T03:47:45Z</time>
            </trkpt>
            <trkpt lon="101.103948" lat="15.250012">
                <ele>66.468262</ele>
                <time>2009-12-20T03:48:01Z</time>
            </trkpt>
            <trkpt lon="101.104581" lat="15.250052">
                <ele>67.910278</ele>
                <time>2009-12-20T03:48:20Z</time>
            </trkpt>
            <trkpt lon="101.105195" lat="15.250090">
                <ele>68.390869</ele>
                <time>2009-12-20T03:48:39Z</time>
            </trkpt>
            <trkpt lon="101.105876" lat="15.250133">
                <ele>69.832886</ele>
                <time>2009-12-20T03:48:58Z</time>
            </trkpt>
            <trkpt lon="101.106484" lat="15.250171">
                <ele>71.274902</ele>
                <time>2009-12-20T03:49:17Z</time>
            </trkpt>
            <trkpt lon="101.107132" lat="15.250211">
                <ele>72.716919</ele>
                <time>2009-12-20T03:49:38Z</time>
            </trkpt>
            <trkpt lon="101.107656" lat="15.250245">
                <ele>75.120239</ele>
                <time>2009-12-20T03:49:56Z</time>
            </trkpt>
            <trkpt lon="101.108130" lat="15.250276">
                <ele>78.484741</ele>
                <time>2009-12-20T03:50:14Z</time>
            </trkpt>
            <trkpt lon="101.108695" lat="15.250312">
                <ele>80.888184</ele>
                <time>2009-12-20T03:50:33Z</time>
            </trkpt>
            <trkpt lon="101.109288" lat="15.250349">
                <ele>82.330078</ele>
                <time>2009-12-20T03:50:53Z</time>
            </trkpt>
            <trkpt lon="101.109893" lat="15.250387">
                <ele>81.368774</ele>
                <time>2009-12-20T03:51:10Z</time>
            </trkpt>
            <trkpt lon="101.110751" lat="15.250440">
                <ele>80.407471</ele>
                <time>2009-12-20T03:51:28Z</time>
            </trkpt>
            <trkpt lon="101.111527" lat="15.250489">
                <ele>80.407471</ele>
                <time>2009-12-20T03:51:45Z</time>
            </trkpt>
            <trkpt lon="101.112591" lat="15.250545">
                <ele>79.926636</ele>
                <time>2009-12-20T03:52:08Z</time>
            </trkpt>
            <trkpt lon="101.113864" lat="15.250597">
                <ele>78.965454</ele>
                <time>2009-12-20T03:52:32Z</time>
            </trkpt>
            <trkpt lon="101.114805" lat="15.250659">
                <ele>79.446045</ele>
                <time>2009-12-20T03:52:51Z</time>
            </trkpt>
            <trkpt lon="101.115872" lat="15.250744">
                <ele>78.484741</ele>
                <time>2009-12-20T03:53:13Z</time>
            </trkpt>
            <trkpt lon="101.116852" lat="15.250808">
                <ele>77.523438</ele>
                <time>2009-12-20T03:53:32Z</time>
            </trkpt>
            <trkpt lon="101.117631" lat="15.250842">
                <ele>79.926636</ele>
                <time>2009-12-20T03:53:51Z</time>
            </trkpt>
            <trkpt lon="101.118361" lat="15.250883">
                <ele>80.888184</ele>
                <time>2009-12-20T03:54:09Z</time>
            </trkpt>
            <trkpt lon="101.119011" lat="15.250911">
                <ele>81.849365</ele>
                <time>2009-12-20T03:54:26Z</time>
            </trkpt>
            <trkpt lon="101.119631" lat="15.250950">
                <ele>85.213989</ele>
                <time>2009-12-20T03:54:47Z</time>
            </trkpt>
            <trkpt lon="101.120140" lat="15.250981">
                <ele>88.578735</ele>
                <time>2009-12-20T03:55:07Z</time>
            </trkpt>
            <trkpt lon="101.120691" lat="15.251016">
                <ele>91.943237</ele>
                <time>2009-12-20T03:55:29Z</time>
            </trkpt>
            <trkpt lon="101.121054" lat="15.251039">
                <ele>93.385132</ele>
                <time>2009-12-20T03:55:41Z</time>
            </trkpt>
            <trkpt lon="101.121563" lat="15.251071">
                <ele>95.788452</ele>
                <time>2009-12-20T03:55:56Z</time>
            </trkpt>
            <trkpt lon="101.122093" lat="15.251093">
                <ele>98.191895</ele>
                <time>2009-12-20T03:56:13Z</time>
            </trkpt>
            <trkpt lon="101.122835" lat="15.251116">
                <ele>99.153076</ele>
                <time>2009-12-20T03:56:33Z</time>
            </trkpt>
            <trkpt lon="101.123672" lat="15.251162">
                <ele>100.595093</ele>
                <time>2009-12-20T03:56:54Z</time>
            </trkpt>
            <trkpt lon="101.124330" lat="15.251211">
                <ele>101.556397</ele>
                <time>2009-12-20T03:57:13Z</time>
            </trkpt>
            <trkpt lon="101.124839" lat="15.251249">
                <ele>104.440430</ele>
                <time>2009-12-20T03:57:30Z</time>
            </trkpt>
            <trkpt lon="101.125401" lat="15.251290">
                <ele>106.363037</ele>
                <time>2009-12-20T03:57:50Z</time>
            </trkpt>
            <trkpt lon="101.125500" lat="15.251338">
                <ele>106.843628</ele>
                <time>2009-12-20T03:57:54Z</time>
            </trkpt>
            <trkpt lon="101.125453" lat="15.252048">
                <ele>105.882446</ele>
                <time>2009-12-20T03:58:13Z</time>
            </trkpt>
            <trkpt lon="101.125380" lat="15.253168">
                <ele>105.401733</ele>
                <time>2009-12-20T03:58:36Z</time>
            </trkpt>
            <trkpt lon="101.125302" lat="15.254351">
                <ele>106.363037</ele>
                <time>2009-12-20T03:58:58Z</time>
            </trkpt>
            <trkpt lon="101.125257" lat="15.255250">
                <ele>106.363037</ele>
                <time>2009-12-20T03:59:14Z</time>
            </trkpt>
            <trkpt lon="101.125182" lat="15.256557">
                <ele>107.805054</ele>
                <time>2009-12-20T03:59:39Z</time>
            </trkpt>
            <trkpt lon="101.125133" lat="15.257381">
                <ele>111.169556</ele>
                <time>2009-12-20T03:59:58Z</time>
            </trkpt>
            <trkpt lon="101.125102" lat="15.258119">
                <ele>114.053589</ele>
                <time>2009-12-20T04:00:17Z</time>
            </trkpt>
            <trkpt lon="101.125040" lat="15.258862">
                <ele>116.937500</ele>
                <time>2009-12-20T04:00:38Z</time>
            </trkpt>
            <trkpt lon="101.124988" lat="15.259566">
                <ele>119.340820</ele>
                <time>2009-12-20T04:00:58Z</time>
            </trkpt>
            <trkpt lon="101.124958" lat="15.260198">
                <ele>119.340820</ele>
                <time>2009-12-20T04:01:13Z</time>
            </trkpt>
            <trkpt lon="101.124945" lat="15.260562">
                <ele>119.340820</ele>
                <time>2009-12-20T04:01:21Z</time>
            </trkpt>
            <trkpt lon="101.125116" lat="15.260396">
                <ele>117.418213</ele>
                <time>2009-12-20T04:01:27Z</time>
            </trkpt>
            <trkpt lon="101.124545" lat="15.260635">
                <ele>116.456787</ele>
                <time>2009-12-20T04:01:30Z</time>
            </trkpt>
            <trkpt lon="101.123410" lat="15.260606">
                <ele>109.246948</ele>
                <time>2009-12-20T04:01:44Z</time>
            </trkpt>
            <trkpt lon="101.121845" lat="15.260469">
                <ele>102.998291</ele>
                <time>2009-12-20T04:02:01Z</time>
            </trkpt>
            <trkpt lon="101.120436" lat="15.260366">
                <ele>96.749878</ele>
                <time>2009-12-20T04:02:16Z</time>
            </trkpt>
            <trkpt lon="101.119933" lat="15.260326">
                <ele>94.346558</ele>
                <time>2009-12-20T04:02:21Z</time>
            </trkpt>
            <trkpt lon="101.119661" lat="15.260563">
                <ele>92.904541</ele>
                <time>2009-12-20T04:02:27Z</time>
            </trkpt>
            <trkpt lon="101.119668" lat="15.260697">
                <ele>92.423950</ele>
                <time>2009-12-20T04:02:29Z</time>
            </trkpt>
            <trkpt lon="101.119688" lat="15.260842">
                <ele>91.943237</ele>
                <time>2009-12-20T04:02:31Z</time>
            </trkpt>
            <trkpt lon="101.119764" lat="15.261147">
                <ele>92.423950</ele>
                <time>2009-12-20T04:02:35Z</time>
            </trkpt>
            <trkpt lon="101.119726" lat="15.262101">
                <ele>96.749878</ele>
                <time>2009-12-20T04:02:49Z</time>
            </trkpt>
            <trkpt lon="101.119708" lat="15.262611">
                <ele>98.191895</ele>
                <time>2009-12-20T04:03:01Z</time>
            </trkpt>
            <trkpt lon="101.119703" lat="15.263356">
                <ele>100.595093</ele>
                <time>2009-12-20T04:03:21Z</time>
            </trkpt>
            <trkpt lon="101.119673" lat="15.263980">
                <ele>101.556397</ele>
                <time>2009-12-20T04:03:37Z</time>
            </trkpt>
            <trkpt lon="101.119376" lat="15.264187">
                <ele>100.114502</ele>
                <time>2009-12-20T04:03:44Z</time>
            </trkpt>
            <trkpt lon="101.118331" lat="15.264365">
                <ele>98.191895</ele>
                <time>2009-12-20T04:03:58Z</time>
            </trkpt>
            <trkpt lon="101.117594" lat="15.264245">
                <ele>99.633789</ele>
                <time>2009-12-20T04:04:11Z</time>
            </trkpt>
            <trkpt lon="101.117536" lat="15.264230">
                <ele>100.114502</ele>
                <time>2009-12-20T04:04:12Z</time>
            </trkpt>
            <trkpt lon="101.117385" lat="15.264154">
                <ele>99.633789</ele>
                <time>2009-12-20T04:04:15Z</time>
            </trkpt>
            <trkpt lon="101.116800" lat="15.263502">
                <ele>100.114502</ele>
                <time>2009-12-20T04:04:30Z</time>
            </trkpt>
            <trkpt lon="101.116650" lat="15.263038">
                <ele>100.595093</ele>
                <time>2009-12-20T04:04:39Z</time>
            </trkpt>
            <trkpt lon="101.116616" lat="15.262910">
                <ele>100.595093</ele>
                <time>2009-12-20T04:04:42Z</time>
            </trkpt>
            <trkpt lon="101.116658" lat="15.262504">
                <ele>100.114502</ele>
                <time>2009-12-20T04:04:52Z</time>
            </trkpt>
            <trkpt lon="101.116873" lat="15.262584">
                <ele>98.672485</ele>
                <time>2009-12-20T04:04:58Z</time>
            </trkpt>
            <trkpt lon="101.117014" lat="15.262670">
                <ele>97.711182</ele>
                <time>2009-12-20T04:05:02Z</time>
            </trkpt>
        </trkseg>
    </trk>
</gpx>